China Grove, North Carolina
Current Conditions -  °F | °C
As of 5:15 PM on Thursday 23 Oct 2014 (Local Time) from KRUQ Reporting Station
Clear Clear  
Wind Chill: 66°   Ceiling: Unl
Heat Index: 66°   Visibility: 10mi
Dew Point: 41°   Wind: 7mph
Humidity: 40%   Direction: 350°N
Pressure: 29.98"   Gusts: NA
Location:  35.57°N, 80.58°W
Report Text: KRUQ 232115Z AUTO 35006KT 10SM CLR 19/05 A2998 RMK AO2 T01900051
Loading
Personal Weather Stations






























Interactive Weather Map
Tropical Storm Tracking
New forecast layout! Learn more

10-Day Weather Forecast

Advertisements
Track Severe Weather on mobile